»·PEaware :: HAWG11 KLSV-KLSV

HAWG11 :: KLSV-KLSV

FLIGHT INFORMATION

Flight Status: Arrived
Operator: Unknown
More flights by this operator :: More flights under this callsign
Pilot: Logan D. (20254)
Aircraft: FAIRCHILD A-10 THUNDERBOLT 2
(A10)
More flights by this aircraft type
Origin: KLSV Nellis AFB
United States
Destination: KLSV Nellis AFB
United States
More flights between these airports :: More routes between these airports
Route: +FYTTR5 FYTTR INS
File this flight plan on PilotEdge
Remarks: Maneuvers in R4806W, then return to KLSV
Altitude:
(Current/Filed)
14,000ft
Speed:
(Current/Filed)
250kts
Departed: 26-Jun-20 07:34 PM
Arrived: 26-Jun-20 08:24 PM
Distance/Time
Traveled:
1nm/0:50
Distance/Time
To Go:
Arrived

Flight Plot

Page will automatically refresh every two minutes.

Flight plan parsing failed; only flown route is shown


Map Options




Map Legend


Flown Route
Filed Route
Departure Airport
Arrival Airport
Navaid (VOR, NDB)
Fix

Horizontal Profiles

Position Reports

Time Latitude Longitude Heading Altitude Ground
Speed
26-Jun-20 18:55 36.229865 -115.024945 86 1850ft 0kts
26-Jun-20 18:56 36.229865 -115.024945 86 1850ft 0kts
26-Jun-20 18:57 36.229865 -115.024945 86 1850ft 0kts
26-Jun-20 18:58 36.229865 -115.024945 86 1850ft 0kts
26-Jun-20 18:59 36.229865 -115.024945 86 1850ft 0kts
26-Jun-20 19:00 36.229865 -115.024945 86 1850ft 0kts
26-Jun-20 19:01 36.229865 -115.024945 86 1850ft 0kts
26-Jun-20 19:02 36.229865 -115.024945 86 1850ft 0kts
26-Jun-20 19:03 36.229865 -115.024945 86 1850ft 0kts
26-Jun-20 19:04 36.229865 -115.024945 86 1850ft 0kts
26-Jun-20 19:05 36.229865 -115.024945 86 1850ft 0kts
26-Jun-20 19:06 36.229865 -115.024945 86 1850ft 0kts
26-Jun-20 19:07 36.229865 -115.024945 86 1850ft 0kts
26-Jun-20 19:08 36.229865 -115.024945 86 1850ft 0kts
26-Jun-20 19:09 36.229865 -115.024945 86 1850ft 0kts
26-Jun-20 19:10 36.229865 -115.024945 86 1850ft 0kts
26-Jun-20 19:11 36.229865 -115.024945 86 1850ft 0kts
26-Jun-20 19:12 36.229865 -115.024945 86 1850ft 0kts
26-Jun-20 19:13 36.229865 -115.024945 86 1850ft 0kts
26-Jun-20 19:14 36.229865 -115.024945 86 1850ft 0kts
26-Jun-20 19:15 36.229865 -115.024945 86 1850ft 0kts
26-Jun-20 19:16 36.229865 -115.024945 86 1850ft 0kts
26-Jun-20 19:17 36.229865 -115.024945 86 1850ft 0kts
26-Jun-20 19:18 36.229865 -115.024945 86 1850ft 0kts
26-Jun-20 19:19 36.229865 -115.024945 86 1850ft 0kts
26-Jun-20 19:20 36.229865 -115.024945 86 1850ft 0kts
26-Jun-20 19:21 36.229865 -115.024945 86 1850ft 0kts
26-Jun-20 19:22 36.229865 -115.024945 86 1850ft 0kts
26-Jun-20 19:23 36.229865 -115.024945 86 1850ft 0kts
26-Jun-20 19:24 36.229865 -115.024945 86 1850ft 0kts
26-Jun-20 19:25 36.229865 -115.024945 86 1850ft 0kts
26-Jun-20 19:26 36.229865 -115.024945 86 1850ft 0kts
26-Jun-20 19:27 36.230655 -115.027217 267 1850ft 20kts
26-Jun-20 19:28 36.229290 -115.033204 219 1850ft 17kts
26-Jun-20 19:29 36.225514 -115.037321 220 1849ft 21kts
26-Jun-20 19:30 36.222712 -115.040989 303 1848ft 13kts
26-Jun-20 19:31 36.224405 -115.043291 321 1848ft 0kts
26-Jun-20 19:32 36.225304 -115.043750 39 1848ft 0kts
26-Jun-20 19:33 36.251224 -115.015738 40 2509ft 192kts
26-Jun-20 19:34 36.295700 -114.969019 39 5297ft 210kts
26-Jun-20 19:35 36.341832 -114.971065 287 8379ft 193kts
26-Jun-20 19:36 36.312714 -115.031633 223 10200ft 232kts
26-Jun-20 19:37 36.264330 -115.093560 232 11841ft 259kts
26-Jun-20 19:38 36.274345 -115.184478 281 12976ft 275kts
26-Jun-20 19:39 36.290783 -115.278777 281 14226ft 283kts
26-Jun-20 19:41 36.308349 -115.379803 281 14248ft 311kts
26-Jun-20 19:42 36.326800 -115.486517 281 14247ft 317kts
26-Jun-20 19:43 36.345218 -115.593573 281 14239ft 304kts
26-Jun-20 19:44 36.362343 -115.689551 295 14255ft 290kts
26-Jun-20 19:45 36.438146 -115.701999 7 14313ft 295kts
26-Jun-20 19:46 36.519504 -115.688229 7 14275ft 293kts
26-Jun-20 19:47 36.600419 -115.674442 4 14309ft 291kts
26-Jun-20 19:48 36.677960 -115.715867 332 14220ft 313kts
26-Jun-20 19:49 36.759644 -115.744978 350 14904ft 298kts
26-Jun-20 19:50 36.837640 -115.757907 353 14757ft 280kts
26-Jun-20 19:51 36.870091 -115.681347 88 14328ft 313kts
26-Jun-20 19:52 36.910536 -115.616057 324 15197ft 274kts
26-Jun-20 19:53 36.920778 -115.715533 256 15238ft 293kts
26-Jun-20 19:54 36.851561 -115.744821 120 13636ft 324kts
26-Jun-20 19:55 36.873513 -115.630333 44 10891ft 312kts
26-Jun-20 19:56 36.938369 -115.650175 282 12354ft 298kts
26-Jun-20 19:56 36.902418 -115.716106 194 12336ft 315kts
26-Jun-20 19:58 36.859808 -115.659322 77 11411ft 333kts
26-Jun-20 19:59 36.801538 -115.659487 263 10756ft 327kts
26-Jun-20 19:59 36.841877 -115.731810 321 11376ft 307kts
26-Jun-20 20:01 36.836576 -115.666346 193 9717ft 306kts
26-Jun-20 20:01 36.820674 -115.741896 301 10251ft 306kts
26-Jun-20 20:02 36.862735 -115.699103 106 9965ft 321kts
26-Jun-20 20:04 36.797549 -115.716647 274 11523ft 306kts
26-Jun-20 20:04 36.829040 -115.776450 20 13259ft 284kts
26-Jun-20 20:05 36.869902 -115.684200 35 10819ft 269kts
26-Jun-20 20:06 36.897389 -115.717900 209 11126ft 228kts
26-Jun-20 20:07 36.827251 -115.706776 165 11130ft 286kts
26-Jun-20 20:08 36.756896 -115.685344 166 11127ft 266kts
26-Jun-20 20:09 36.691001 -115.666014 166 11144ft 246kts
26-Jun-20 20:10 36.618476 -115.644296 165 11137ft 279kts
26-Jun-20 20:11 36.553277 -115.610066 144 11003ft 242kts
26-Jun-20 20:12 36.496616 -115.559821 143 10587ft 256kts
26-Jun-20 20:13 36.437473 -115.506038 143 9614ft 264kts
26-Jun-20 20:14 36.388059 -115.444693 125 9002ft 240kts
26-Jun-20 20:15 36.349227 -115.377724 119 8013ft 228kts
26-Jun-20 20:16 36.326053 -115.306850 109 7446ft 220kts
26-Jun-20 20:17 36.305512 -115.240626 107 6962ft 195kts
26-Jun-20 20:18 36.286654 -115.173982 108 5618ft 224kts
26-Jun-20 20:19 36.261316 -115.106174 152 4552ft 210kts
26-Jun-20 20:20 36.209174 -115.095181 128 3634ft 194kts
26-Jun-20 20:21 36.221420 -115.047876 40 2075ft 151kts
26-Jun-20 20:22 36.242939 -115.024664 39 1856ft 52kts
26-Jun-20 20:23 36.243654 -115.020304 222 1859ft 18kts
26-Jun-20 20:24 36.239810 -115.024461 218 1854ft 18kts
26-Jun-20 20:25 36.234352 -115.030399 218 1851ft 27kts
26-Jun-20 20:26 36.230691 -115.028525 90 1850ft 21kts
26-Jun-20 20:27 36.229865 -115.025057 87 1850ft 0kts
26-Jun-20 20:28 36.229865 -115.025057 87 1850ft 0kts
26-Jun-20 20:29 36.229865 -115.025057 87 1850ft 0kts

Navigation Log

Ident Type
Flight plan parsing failed, navigation log unavailable